Home   Weather   Hattersheim am Main   Past weeks
Flag for Germany

Past Weather in Hattersheim am Main, Hesse, Germany — Yesterday and Last 2 Weeks

Currently: 50 °F. Overcast. (Weather station: Frankfurt-M-Flughafen Airport, Germany). See more current weather

Past Weather in Hattersheim am Main — Graph

°F

Hattersheim am Main Temperature Yesterday

Maximum temperature yesterday: 61 °F (at 1:50 pm)
Minimum temperature yesterday: 43 °F (at 1:20 am)
Average temperature yesterday: 51 °F

High & Low Weather Summary for the Past Weeks

 TemperatureHumidityPressure
High61 °F (Mar 3, 1:50 pm)100% (Feb 22, 3:20 am)30.42 "Hg (Feb 22, 3:20 am)
Low28 °F (Feb 29, 6:20 am)48% (Mar 2, 3:20 pm)29.15 "Hg (Feb 22, 8:20 pm)
Average45 °F77%29.82 "Hg
* Reported Feb 18 11:20 am — Mar 4 11:50 am, Hattersheim am Main. Weather by CustomWeather, © 2024

Note: Actual official high and low records may vary slightly from our data, if they occured in-between our weather recording intervals... More about our weather records

Hattersheim am Main Weather History for the Previous 24 Hours

Scroll right to see more
 ConditionsComfort  
Time TempWeatherWind HumidityBarometerVisibility
11:50 am
Mon, Mar 4
50 °FPartly sunny.8 mph76%29.86 "HgN/A
11:20 am50 °FOvercast.8 mph82%29.86 "HgN/A
10:50 am50 °FMostly cloudy.8 mph82%29.83 "HgN/A
10:20 am48 °FMostly cloudy.7 mph82%29.83 "HgN/A
9:50 am48 °FMostly cloudy.7 mph82%29.83 "HgN/A
9:20 am48 °FMostly cloudy.6 mph82%29.83 "HgN/A
8:50 am46 °FOvercast.9 mph87%29.83 "HgN/A
8:20 am45 °FPartly sunny.2 mph87%29.80 "Hg6 mi
7:50 am45 °FScattered clouds.6 mph87%29.80 "HgN/A
7:20 am37 °FFog.7 mph100%29.77 "Hg6 mi
6:50 am39 °FFog.1 mph93%29.77 "HgN/A
6:20 am43 °FPassing clouds.5 mph87%29.74 "HgN/A
5:50 am45 °FPassing clouds.10 mph87%29.74 "HgN/A
5:20 am46 °FClear.8 mph82%29.74 "Hg6 mi
4:50 am46 °FClear.10 mph87%29.71 "Hg5 mi
4:20 am45 °FClear.10 mph93%29.71 "Hg5 mi
3:50 am37 °FPassing clouds.5 mph93%29.71 "HgN/A
3:20 am37 °FPassing clouds.5 mph100%29.68 "HgN/A
2:50 am39 °FClear.8 mph93%29.68 "Hg10 mi
2:20 am39 °FPassing clouds.3 mph93%29.68 "HgN/A
1:50 am41 °FClear.2 mph93%29.65 "Hg10 mi
1:20 am41 °FClear.2 mph93%29.65 "Hg10 mi
12:50 am43 °FClear.1 mph87%29.62 "Hg10 mi
12:20 am45 °FClear.1 mph81%29.62 "Hg10 mi
11:50 pm
Sun, Mar 3
48 °FClear.6 mph76%29.62 "Hg10 mi
11:20 pm46 °FPassing clouds.5 mph76%29.59 "HgN/A
10:50 pm48 °FClear.9 mph76%29.59 "Hg10 mi
10:20 pm48 °FClear.10 mph76%29.59 "Hg10 mi
9:50 pm50 °FClear.8 mph71%29.59 "Hg10 mi
8:50 pm52 °FClear.8 mph67%29.56 "Hg10 mi
8:20 pm50 °FClear.8 mph71%29.56 "Hg10 mi
7:50 pm52 °FClear.8 mph67%29.56 "Hg10 mi
7:20 pm52 °FPassing clouds.5 mph67%29.53 "HgN/A
6:50 pm54 °FClear.7 mph63%29.53 "Hg10 mi
6:20 pm55 °FClear.8 mph63%29.53 "Hg10 mi
5:50 pm59 °FSunny.9 mph55%29.50 "Hg10 mi
5:20 pm61 °FSunny.7 mph52%29.50 "Hg10 mi
4:50 pm61 °FSunny.7 mph52%29.50 "Hg10 mi
4:20 pm61 °FPassing clouds.9 mph52%29.47 "HgN/A
3:20 pm61 °FSunny.9 mph52%29.47 "Hg10 mi
2:50 pm61 °FSunny.9 mph48%29.47 "Hg10 mi
2:20 pm59 °FPassing clouds.10 mph55%29.47 "HgN/A
1:50 pm61 °FPassing clouds.8 mph52%29.50 "HgN/A
1:20 pm59 °FPassing clouds.7 mph51%29.50 "HgN/A
12:50 pm59 °FPassing clouds.9 mph55%29.50 "HgN/A
12:20 pm57 °FPassing clouds.12 mph55%29.50 "HgN/A
Weather by CustomWeather, © 2024

See weather overview